sensor_id;sensor_type;location;lat;lon;timestamp;P1;durP1;ratioP1;P2;durP2;ratioP2
67372;SDS011;54257;54.496;18.412;2022-08-11T00:00:41;4.20;;;2.60;;
67372;SDS011;54257;54.496;18.412;2022-08-11T00:03:10;4.30;;;2.90;;
67372;SDS011;54257;54.496;18.412;2022-08-11T00:05:46;2.60;;;2.10;;
67372;SDS011;54257;54.496;18.412;2022-08-11T00:08:21;3.20;;;2.40;;
67372;SDS011;54257;54.496;18.412;2022-08-11T00:13:20;2.50;;;2.30;;
67372;SDS011;54257;54.496;18.412;2022-08-11T00:15:48;5.10;;;2.50;;
67372;SDS011;54257;54.496;18.412;2022-08-11T00:18:16;5.20;;;3.40;;
67372;SDS011;54257;54.496;18.412;2022-08-11T00:20:44;5.40;;;3.50;;
67372;SDS011;54257;54.496;18.412;2022-08-11T00:23:13;4.10;;;2.90;;
67372;SDS011;54257;54.496;18.412;2022-08-11T00:25:46;5.70;;;3.80;;
67372;SDS011;54257;54.496;18.412;2022-08-11T00:28:27;5.30;;;4.10;;
67372;SDS011;54257;54.496;18.412;2022-08-11T00:30:56;9.50;;;3.80;;
67372;SDS011;54257;54.496;18.412;2022-08-11T00:33:45;5.30;;;4.10;;
67372;SDS011;54257;54.496;18.412;2022-08-11T00:36:14;5.00;;;4.00;;
67372;SDS011;54257;54.496;18.412;2022-08-11T00:38:43;3.60;;;3.20;;
67372;SDS011;54257;54.496;18.412;2022-08-11T00:41:38;3.70;;;2.80;;
67372;SDS011;54257;54.496;18.412;2022-08-11T00:44:26;4.40;;;2.80;;
67372;SDS011;54257;54.496;18.412;2022-08-11T00:52:47;4.30;;;3.10;;
67372;SDS011;54257;54.496;18.412;2022-08-11T01:35:19;1.80;;;1.70;;
67372;SDS011;54257;54.496;18.412;2022-08-11T01:37:56;2.40;;;2.20;;
67372;SDS011;54257;54.496;18.412;2022-08-11T01:46:51;2.40;;;2.20;;
67372;SDS011;54257;54.496;18.412;2022-08-11T01:49:34;3.00;;;2.60;;
67372;SDS011;54257;54.496;18.412;2022-08-11T01:52:28;5.80;;;2.80;;
67372;SDS011;54257;54.496;18.412;2022-08-11T01:57:37;3.00;;;2.40;;
67372;SDS011;54257;54.496;18.412;2022-08-11T02:00:14;2.70;;;2.40;;
67372;SDS011;54257;54.496;18.412;2022-08-11T02:05:25;3.70;;;2.10;;
67372;SDS011;54257;54.496;18.412;2022-08-11T02:10:47;2.10;;;1.90;;
67372;SDS011;54257;54.496;18.412;2022-08-11T02:13:41;2.30;;;1.90;;
67372;SDS011;54257;54.496;18.412;2022-08-11T02:25:05;2.50;;;2.30;;
67372;SDS011;54257;54.496;18.412;2022-08-11T02:27:58;3.30;;;2.80;;
67372;SDS011;54257;54.496;18.412;2022-08-11T02:30:31;3.50;;;2.50;;
67372;SDS011;54257;54.496;18.412;2022-08-11T02:36:05;4.00;;;2.70;;
67372;SDS011;54257;54.496;18.412;2022-08-11T02:38:37;3.60;;;3.20;;
67372;SDS011;54257;54.496;18.412;2022-08-11T02:41:32;3.80;;;3.00;;
67372;SDS011;54257;54.496;18.412;2022-08-11T02:51:22;3.20;;;2.90;;
67372;SDS011;54257;54.496;18.412;2022-08-11T03:10:20;5.10;;;3.80;;
67372;SDS011;54257;54.496;18.412;2022-08-11T03:13:18;7.20;;;4.20;;
67372;SDS011;54257;54.496;18.412;2022-08-11T03:16:17;6.40;;;3.70;;
67372;SDS011;54257;54.496;18.412;2022-08-11T03:21:45;4.40;;;3.20;;
67372;SDS011;54257;54.496;18.412;2022-08-11T03:24:22;4.00;;;3.10;;
67372;SDS011;54257;54.496;18.412;2022-08-11T03:35:08;11.50;;;5.70;;
67372;SDS011;54257;54.496;18.412;2022-08-11T03:40:41;10.90;;;6.10;;
67372;SDS011;54257;54.496;18.412;2022-08-11T03:46:15;18.60;;;7.10;;
67372;SDS011;54257;54.496;18.412;2022-08-11T03:49:22;21.90;;;7.50;;
67372;SDS011;54257;54.496;18.412;2022-08-11T04:06:48;27.60;;;7.00;;
67372;SDS011;54257;54.496;18.412;2022-08-11T04:09:42;34.20;;;8.40;;
67372;SDS011;54257;54.496;18.412;2022-08-11T04:26:56;22.40;;;6.50;;
67372;SDS011;54257;54.496;18.412;2022-08-11T04:33:10;24.20;;;8.30;;
67372;SDS011;54257;54.496;18.412;2022-08-11T04:50:18;19.10;;;7.90;;
67372;SDS011;54257;54.496;18.412;2022-08-11T04:56:17;13.90;;;7.00;;
67372;SDS011;54257;54.496;18.412;2022-08-11T04:59:26;17.40;;;8.90;;
67372;SDS011;54257;54.496;18.412;2022-08-11T05:11:37;10.10;;;6.50;;
67372;SDS011;54257;54.496;18.412;2022-08-11T05:16:58;15.80;;;4.50;;
67372;SDS011;54257;54.496;18.412;2022-08-11T05:19:50;10.30;;;5.10;;
67372;SDS011;54257;54.496;18.412;2022-08-11T05:22:35;13.30;;;5.30;;
67372;SDS011;54257;54.496;18.412;2022-08-11T05:25:28;10.80;;;5.20;;
67372;SDS011;54257;54.496;18.412;2022-08-11T05:28:30;11.00;;;6.40;;
67372;SDS011;54257;54.496;18.412;2022-08-11T05:31:19;14.70;;;5.90;;
67372;SDS011;54257;54.496;18.412;2022-08-11T05:34:28;10.40;;;6.50;;
67372;SDS011;54257;54.496;18.412;2022-08-11T05:42:49;10.00;;;6.30;;
67372;SDS011;54257;54.496;18.412;2022-08-11T05:45:39;11.30;;;6.60;;
67372;SDS011;54257;54.496;18.412;2022-08-11T05:48:31;8.70;;;6.20;;
67372;SDS011;54257;54.496;18.412;2022-08-11T05:51:19;12.50;;;6.00;;
67372;SDS011;54257;54.496;18.412;2022-08-11T05:54:06;9.20;;;6.10;;
67372;SDS011;54257;54.496;18.412;2022-08-11T05:56:54;10.70;;;6.20;;
67372;SDS011;54257;54.496;18.412;2022-08-11T05:59:24;9.40;;;5.30;;
67372;SDS011;54257;54.496;18.412;2022-08-11T06:01:59;7.90;;;4.60;;
67372;SDS011;54257;54.496;18.412;2022-08-11T06:04:31;9.10;;;3.80;;
67372;SDS011;54257;54.496;18.412;2022-08-11T06:07:04;5.50;;;3.70;;
67372;SDS011;54257;54.496;18.412;2022-08-11T06:09:45;6.20;;;3.70;;
67372;SDS011;54257;54.496;18.412;2022-08-11T06:12:22;23.10;;;5.60;;
67372;SDS011;54257;54.496;18.412;2022-08-11T06:14:53;21.10;;;6.50;;
67372;SDS011;54257;54.496;18.412;2022-08-11T06:17:26;6.90;;;3.70;;
67372;SDS011;54257;54.496;18.412;2022-08-11T06:20:01;8.40;;;4.10;;
67372;SDS011;54257;54.496;18.412;2022-08-11T06:22:37;8.20;;;3.90;;
67372;SDS011;54257;54.496;18.412;2022-08-11T06:27:38;4.70;;;3.40;;
67372;SDS011;54257;54.496;18.412;2022-08-11T06:30:08;9.40;;;3.60;;
67372;SDS011;54257;54.496;18.412;2022-08-11T06:32:44;9.80;;;3.20;;
67372;SDS011;54257;54.496;18.412;2022-08-11T06:35:24;5.80;;;2.80;;
67372;SDS011;54257;54.496;18.412;2022-08-11T06:40:48;4.80;;;2.90;;
67372;SDS011;54257;54.496;18.412;2022-08-11T06:46:29;5.80;;;2.40;;
67372;SDS011;54257;54.496;18.412;2022-08-11T06:49:02;8.00;;;2.50;;
67372;SDS011;54257;54.496;18.412;2022-08-11T06:51:31;4.80;;;2.70;;
67372;SDS011;54257;54.496;18.412;2022-08-11T06:54:06;6.80;;;2.40;;
67372;SDS011;54257;54.496;18.412;2022-08-11T06:56:39;4.60;;;2.40;;
67372;SDS011;54257;54.496;18.412;2022-08-11T06:59:25;5.40;;;2.10;;
67372;SDS011;54257;54.496;18.412;2022-08-11T07:02:16;6.30;;;2.20;;
67372;SDS011;54257;54.496;18.412;2022-08-11T07:04:52;6.00;;;2.60;;
67372;SDS011;54257;54.496;18.412;2022-08-11T07:10:44;3.80;;;2.30;;
67372;SDS011;54257;54.496;18.412;2022-08-11T07:13:50;3.10;;;2.10;;
67372;SDS011;54257;54.496;18.412;2022-08-11T07:16:38;5.70;;;1.80;;
67372;SDS011;54257;54.496;18.412;2022-08-11T07:19:09;3.60;;;1.80;;
67372;SDS011;54257;54.496;18.412;2022-08-11T07:21:58;2.80;;;1.70;;
67372;SDS011;54257;54.496;18.412;2022-08-11T07:25:10;1.70;;;1.30;;
67372;SDS011;54257;54.496;18.412;2022-08-11T07:28:17;1.00;;;0.80;;
67372;SDS011;54257;54.496;18.412;2022-08-11T07:31:11;1.70;;;1.30;;
67372;SDS011;54257;54.496;18.412;2022-08-11T07:33:44;3.10;;;1.40;;
67372;SDS011;54257;54.496;18.412;2022-08-11T07:38:43;3.40;;;1.60;;
67372;SDS011;54257;54.496;18.412;2022-08-11T07:41:17;2.80;;;1.50;;
67372;SDS011;54257;54.496;18.412;2022-08-11T07:43:49;2.00;;;1.70;;
67372;SDS011;54257;54.496;18.412;2022-08-11T07:46:21;3.30;;;1.30;;
67372;SDS011;54257;54.496;18.412;2022-08-11T07:49:08;3.30;;;1.60;;
67372;SDS011;54257;54.496;18.412;2022-08-11T07:51:55;4.50;;;2.20;;
67372;SDS011;54257;54.496;18.412;2022-08-11T07:54:41;5.00;;;1.90;;
67372;SDS011;54257;54.496;18.412;2022-08-11T07:57:09;2.70;;;1.90;;
67372;SDS011;54257;54.496;18.412;2022-08-11T07:59:56;4.30;;;2.00;;
67372;SDS011;54257;54.496;18.412;2022-08-11T08:02:42;3.40;;;1.60;;
67372;SDS011;54257;54.496;18.412;2022-08-11T08:05:29;4.80;;;1.60;;
67372;SDS011;54257;54.496;18.412;2022-08-11T08:08:15;4.90;;;2.00;;
67372;SDS011;54257;54.496;18.412;2022-08-11T08:11:01;2.00;;;1.70;;
67372;SDS011;54257;54.496;18.412;2022-08-11T08:13:48;1.60;;;1.50;;
67372;SDS011;54257;54.496;18.412;2022-08-11T08:16:34;3.20;;;1.50;;
67372;SDS011;54257;54.496;18.412;2022-08-11T08:19:21;2.10;;;1.80;;
67372;SDS011;54257;54.496;18.412;2022-08-11T08:21:49;3.10;;;1.70;;
67372;SDS011;54257;54.496;18.412;2022-08-11T08:24:18;3.10;;;1.80;;
67372;SDS011;54257;54.496;18.412;2022-08-11T08:26:47;2.40;;;1.80;;
67372;SDS011;54257;54.496;18.412;2022-08-11T08:29:31;3.20;;;2.00;;
67372;SDS011;54257;54.496;18.412;2022-08-11T08:32:19;2.30;;;1.90;;
67372;SDS011;54257;54.496;18.412;2022-08-11T08:34:50;1.60;;;1.50;;
67372;SDS011;54257;54.496;18.412;2022-08-11T08:37:20;2.00;;;1.50;;
67372;SDS011;54257;54.496;18.412;2022-08-11T08:39:49;1.30;;;1.20;;
67372;SDS011;54257;54.496;18.412;2022-08-11T08:42:17;1.60;;;1.10;;
67372;SDS011;54257;54.496;18.412;2022-08-11T08:44:50;3.20;;;1.50;;
67372;SDS011;54257;54.496;18.412;2022-08-11T08:47:37;2.00;;;1.10;;
67372;SDS011;54257;54.496;18.412;2022-08-11T08:50:09;2.70;;;1.10;;
67372;SDS011;54257;54.496;18.412;2022-08-11T08:52:39;1.80;;;1.00;;
67372;SDS011;54257;54.496;18.412;2022-08-11T08:55:11;3.40;;;1.50;;
67372;SDS011;54257;54.496;18.412;2022-08-11T08:57:44;2.20;;;1.20;;
67372;SDS011;54257;54.496;18.412;2022-08-11T09:00:14;1.30;;;1.20;;
67372;SDS011;54257;54.496;18.412;2022-08-11T09:02:43;2.90;;;1.20;;
67372;SDS011;54257;54.496;18.412;2022-08-11T09:05:11;1.80;;;1.70;;
67372;SDS011;54257;54.496;18.412;2022-08-11T09:07:42;2.00;;;1.00;;
67372;SDS011;54257;54.496;18.412;2022-08-11T09:10:13;5.40;;;1.50;;
67372;SDS011;54257;54.496;18.412;2022-08-11T09:12:44;1.30;;;1.20;;
67372;SDS011;54257;54.496;18.412;2022-08-11T09:15:12;1.80;;;1.60;;
67372;SDS011;54257;54.496;18.412;2022-08-11T09:22:47;2.50;;;1.50;;
67372;SDS011;54257;54.496;18.412;2022-08-11T09:25:34;2.50;;;1.40;;
67372;SDS011;54257;54.496;18.412;2022-08-11T09:28:20;2.30;;;1.00;;
67372;SDS011;54257;54.496;18.412;2022-08-11T09:30:50;2.80;;;1.00;;
67372;SDS011;54257;54.496;18.412;2022-08-11T09:33:22;1.30;;;1.10;;
67372;SDS011;54257;54.496;18.412;2022-08-11T09:35:51;1.40;;;0.90;;
67372;SDS011;54257;54.496;18.412;2022-08-11T09:38:19;1.10;;;1.00;;
67372;SDS011;54257;54.496;18.412;2022-08-11T09:41:08;0.80;;;0.80;;
67372;SDS011;54257;54.496;18.412;2022-08-11T09:43:40;1.40;;;1.30;;
67372;SDS011;54257;54.496;18.412;2022-08-11T09:46:28;1.00;;;0.90;;
67372;SDS011;54257;54.496;18.412;2022-08-11T09:48:58;1.00;;;0.90;;
67372;SDS011;54257;54.496;18.412;2022-08-11T09:51:29;1.60;;;0.90;;
67372;SDS011;54257;54.496;18.412;2022-08-11T09:54:01;0.90;;;0.90;;
67372;SDS011;54257;54.496;18.412;2022-08-11T09:56:32;17.20;;;2.30;;
67372;SDS011;54257;54.496;18.412;2022-08-11T09:59:19;1.90;;;1.30;;
67372;SDS011;54257;54.496;18.412;2022-08-11T10:01:53;2.30;;;1.10;;
67372;SDS011;54257;54.496;18.412;2022-08-11T10:04:39;1.80;;;0.90;;
67372;SDS011;54257;54.496;18.412;2022-08-11T10:07:08;1.90;;;1.10;;
67372;SDS011;54257;54.496;18.412;2022-08-11T10:12:35;1.10;;;1.00;;
67372;SDS011;54257;54.496;18.412;2022-08-11T10:15:07;5.50;;;1.20;;
67372;SDS011;54257;54.496;18.412;2022-08-11T10:18:14;2.90;;;1.50;;
67372;SDS011;54257;54.496;18.412;2022-08-11T10:21:13;4.20;;;1.10;;
67372;SDS011;54257;54.496;18.412;2022-08-11T10:23:43;1.50;;;1.00;;
67372;SDS011;54257;54.496;18.412;2022-08-11T10:26:29;1.20;;;0.90;;
67372;SDS011;54257;54.496;18.412;2022-08-11T10:29:16;0.70;;;0.70;;
67372;SDS011;54257;54.496;18.412;2022-08-11T10:32:03;1.10;;;0.90;;
67372;SDS011;54257;54.496;18.412;2022-08-11T10:34:50;1.00;;;0.90;;
67372;SDS011;54257;54.496;18.412;2022-08-11T10:37:19;1.30;;;1.20;;
67372;SDS011;54257;54.496;18.412;2022-08-11T10:39:49;1.70;;;0.80;;
67372;SDS011;54257;54.496;18.412;2022-08-11T10:42:18;1.20;;;1.10;;
67372;SDS011;54257;54.496;18.412;2022-08-11T10:45:04;2.00;;;1.00;;
67372;SDS011;54257;54.496;18.412;2022-08-11T10:47:54;1.10;;;1.00;;
67372;SDS011;54257;54.496;18.412;2022-08-11T10:50:24;1.10;;;1.00;;
67372;SDS011;54257;54.496;18.412;2022-08-11T10:53:10;2.00;;;0.70;;
67372;SDS011;54257;54.496;18.412;2022-08-11T10:55:58;1.20;;;0.90;;
67372;SDS011;54257;54.496;18.412;2022-08-11T10:58:44;0.80;;;0.80;;
67372;SDS011;54257;54.496;18.412;2022-08-11T11:06:59;1.40;;;0.90;;
67372;SDS011;54257;54.496;18.412;2022-08-11T11:12:14;3.40;;;1.30;;
67372;SDS011;54257;54.496;18.412;2022-08-11T11:15:03;8.00;;;1.00;;
67372;SDS011;54257;54.496;18.412;2022-08-11T11:17:58;0.80;;;0.80;;
67372;SDS011;54257;54.496;18.412;2022-08-11T11:26:30;1.40;;;0.80;;
67372;SDS011;54257;54.496;18.412;2022-08-11T11:37:32;2.10;;;0.90;;
67372;SDS011;54257;54.496;18.412;2022-08-11T11:40:53;2.00;;;1.20;;
67372;SDS011;54257;54.496;18.412;2022-08-11T11:43:40;2.50;;;0.80;;
67372;SDS011;54257;54.496;18.412;2022-08-11T11:46:08;2.10;;;0.70;;
67372;SDS011;54257;54.496;18.412;2022-08-11T11:48:36;2.30;;;1.00;;
67372;SDS011;54257;54.496;18.412;2022-08-11T11:51:04;0.70;;;0.70;;
67372;SDS011;54257;54.496;18.412;2022-08-11T11:53:32;1.50;;;1.30;;
67372;SDS011;54257;54.496;18.412;2022-08-11T11:56:00;0.90;;;0.80;;
67372;SDS011;54257;54.496;18.412;2022-08-11T11:58:34;1.70;;;1.00;;
67372;SDS011;54257;54.496;18.412;2022-08-11T12:01:41;1.30;;;1.00;;
67372;SDS011;54257;54.496;18.412;2022-08-11T12:04:10;1.50;;;0.90;;
67372;SDS011;54257;54.496;18.412;2022-08-11T12:06:39;2.20;;;1.20;;
67372;SDS011;54257;54.496;18.412;2022-08-11T12:09:13;0.90;;;0.90;;
67372;SDS011;54257;54.496;18.412;2022-08-11T12:12:05;0.90;;;0.90;;
67372;SDS011;54257;54.496;18.412;2022-08-11T12:14:52;1.00;;;1.00;;
67372;SDS011;54257;54.496;18.412;2022-08-11T12:17:20;1.60;;;0.90;;
67372;SDS011;54257;54.496;18.412;2022-08-11T12:19:47;1.20;;;0.90;;
67372;SDS011;54257;54.496;18.412;2022-08-11T12:22:15;0.70;;;0.70;;
67372;SDS011;54257;54.496;18.412;2022-08-11T12:25:01;2.10;;;1.20;;
67372;SDS011;54257;54.496;18.412;2022-08-11T12:27:51;4.30;;;1.00;;
67372;SDS011;54257;54.496;18.412;2022-08-11T12:30:20;1.80;;;0.70;;
67372;SDS011;54257;54.496;18.412;2022-08-11T12:32:47;1.80;;;0.90;;
67372;SDS011;54257;54.496;18.412;2022-08-11T12:35:15;4.80;;;0.90;;
67372;SDS011;54257;54.496;18.412;2022-08-11T12:37:49;2.20;;;0.90;;
67372;SDS011;54257;54.496;18.412;2022-08-11T12:40:27;1.60;;;1.00;;
67372;SDS011;54257;54.496;18.412;2022-08-11T12:43:14;3.90;;;1.10;;
67372;SDS011;54257;54.496;18.412;2022-08-11T12:46:12;1.40;;;1.00;;
67372;SDS011;54257;54.496;18.412;2022-08-11T12:48:49;1.00;;;0.90;;
67372;SDS011;54257;54.496;18.412;2022-08-11T12:51:42;1.50;;;0.80;;
67372;SDS011;54257;54.496;18.412;2022-08-11T13:00:01;1.20;;;0.90;;
67372;SDS011;54257;54.496;18.412;2022-08-11T13:02:49;1.50;;;0.90;;
67372;SDS011;54257;54.496;18.412;2022-08-11T13:05:36;3.50;;;0.90;;
67372;SDS011;54257;54.496;18.412;2022-08-11T13:08:04;1.50;;;0.90;;
67372;SDS011;54257;54.496;18.412;2022-08-11T13:10:32;0.90;;;0.80;;
67372;SDS011;54257;54.496;18.412;2022-08-11T13:13:19;0.90;;;0.90;;
67372;SDS011;54257;54.496;18.412;2022-08-11T13:15:47;1.60;;;1.00;;
67372;SDS011;54257;54.496;18.412;2022-08-11T13:18:16;1.20;;;0.90;;
67372;SDS011;54257;54.496;18.412;2022-08-11T13:20:50;2.10;;;0.90;;
67372;SDS011;54257;54.496;18.412;2022-08-11T13:23:19;1.20;;;1.00;;
67372;SDS011;54257;54.496;18.412;2022-08-11T13:25:50;1.90;;;0.90;;
67372;SDS011;54257;54.496;18.412;2022-08-11T13:28:22;0.80;;;0.80;;
67372;SDS011;54257;54.496;18.412;2022-08-11T13:30:49;0.90;;;0.90;;
67372;SDS011;54257;54.496;18.412;2022-08-11T13:33:40;4.40;;;1.00;;
67372;SDS011;54257;54.496;18.412;2022-08-11T13:36:13;1.20;;;0.90;;
67372;SDS011;54257;54.496;18.412;2022-08-11T13:38:44;1.40;;;1.10;;
67372;SDS011;54257;54.496;18.412;2022-08-11T13:41:12;1.60;;;0.80;;
67372;SDS011;54257;54.496;18.412;2022-08-11T13:43:58;1.40;;;0.90;;
67372;SDS011;54257;54.496;18.412;2022-08-11T13:46:27;0.90;;;0.80;;
67372;SDS011;54257;54.496;18.412;2022-08-11T13:48:55;2.30;;;0.90;;
67372;SDS011;54257;54.496;18.412;2022-08-11T13:51:24;2.80;;;1.00;;
67372;SDS011;54257;54.496;18.412;2022-08-11T13:54:00;1.00;;;0.80;;
67372;SDS011;54257;54.496;18.412;2022-08-11T13:56:31;1.70;;;0.80;;
67372;SDS011;54257;54.496;18.412;2022-08-11T13:59:01;2.60;;;1.00;;
67372;SDS011;54257;54.496;18.412;2022-08-11T14:01:30;1.10;;;0.80;;
67372;SDS011;54257;54.496;18.412;2022-08-11T14:04:04;1.30;;;0.90;;
67372;SDS011;54257;54.496;18.412;2022-08-11T14:06:36;2.50;;;1.00;;
67372;SDS011;54257;54.496;18.412;2022-08-11T14:09:07;6.40;;;1.20;;
67372;SDS011;54257;54.496;18.412;2022-08-11T14:11:35;1.70;;;0.90;;
67372;SDS011;54257;54.496;18.412;2022-08-11T14:14:24;0.70;;;0.70;;
67372;SDS011;54257;54.496;18.412;2022-08-11T14:16:53;1.90;;;0.90;;
67372;SDS011;54257;54.496;18.412;2022-08-11T14:19:24;2.50;;;1.10;;
67372;SDS011;54257;54.496;18.412;2022-08-11T14:21:52;1.60;;;0.90;;
67372;SDS011;54257;54.496;18.412;2022-08-11T14:24:34;0.90;;;0.90;;
67372;SDS011;54257;54.496;18.412;2022-08-11T14:27:07;6.80;;;1.20;;
67372;SDS011;54257;54.496;18.412;2022-08-11T14:29:37;3.50;;;0.90;;
67372;SDS011;54257;54.496;18.412;2022-08-11T14:32:07;2.40;;;1.10;;
67372;SDS011;54257;54.496;18.412;2022-08-11T14:34:40;2.80;;;0.90;;
67372;SDS011;54257;54.496;18.412;2022-08-11T14:37:13;3.10;;;1.20;;
67372;SDS011;54257;54.496;18.412;2022-08-11T14:42:26;2.00;;;1.00;;
67372;SDS011;54257;54.496;18.412;2022-08-11T14:45:14;0.90;;;0.80;;
67372;SDS011;54257;54.496;18.412;2022-08-11T14:48:02;2.00;;;1.20;;
67372;SDS011;54257;54.496;18.412;2022-08-11T14:50:34;3.40;;;1.30;;
67372;SDS011;54257;54.496;18.412;2022-08-11T14:53:02;1.80;;;1.20;;
67372;SDS011;54257;54.496;18.412;2022-08-11T14:55:36;2.20;;;1.00;;
67372;SDS011;54257;54.496;18.412;2022-08-11T14:58:26;1.30;;;1.10;;
67372;SDS011;54257;54.496;18.412;2022-08-11T15:00:56;2.60;;;1.10;;
67372;SDS011;54257;54.496;18.412;2022-08-11T15:03:26;1.10;;;1.10;;
67372;SDS011;54257;54.496;18.412;2022-08-11T15:05:57;1.30;;;1.20;;
67372;SDS011;54257;54.496;18.412;2022-08-11T15:08:28;2.50;;;1.20;;
67372;SDS011;54257;54.496;18.412;2022-08-11T15:11:18;1.10;;;0.90;;
67372;SDS011;54257;54.496;18.412;2022-08-11T15:14:06;1.90;;;1.20;;
67372;SDS011;54257;54.496;18.412;2022-08-11T15:16:40;2.80;;;1.10;;
67372;SDS011;54257;54.496;18.412;2022-08-11T15:19:28;1.70;;;1.00;;
67372;SDS011;54257;54.496;18.412;2022-08-11T15:21:57;1.90;;;0.90;;
67372;SDS011;54257;54.496;18.412;2022-08-11T15:24:42;1.20;;;1.00;;
67372;SDS011;54257;54.496;18.412;2022-08-11T15:27:11;3.10;;;1.10;;
67372;SDS011;54257;54.496;18.412;2022-08-11T15:30:02;1.90;;;1.30;;
67372;SDS011;54257;54.496;18.412;2022-08-11T15:32:49;5.10;;;1.30;;
67372;SDS011;54257;54.496;18.412;2022-08-11T15:35:38;20.00;;;18.30;;
67372;SDS011;54257;54.496;18.412;2022-08-11T15:38:26;5.80;;;5.30;;
67372;SDS011;54257;54.496;18.412;2022-08-11T15:41:00;15.00;;;13.50;;
67372;SDS011;54257;54.496;18.412;2022-08-11T15:43:50;3.40;;;2.60;;
67372;SDS011;54257;54.496;18.412;2022-08-11T15:46:40;2.20;;;1.80;;
67372;SDS011;54257;54.496;18.412;2022-08-11T15:49:14;3.20;;;1.30;;
67372;SDS011;54257;54.496;18.412;2022-08-11T15:51:49;2.10;;;1.40;;
67372;SDS011;54257;54.496;18.412;2022-08-11T15:54:26;2.30;;;1.50;;
67372;SDS011;54257;54.496;18.412;2022-08-11T15:56:57;7.00;;;1.60;;
67372;SDS011;54257;54.496;18.412;2022-08-11T15:59:35;2.30;;;1.40;;
67372;SDS011;54257;54.496;18.412;2022-08-11T16:02:23;3.60;;;1.20;;
67372;SDS011;54257;54.496;18.412;2022-08-11T16:05:11;1.50;;;1.40;;
67372;SDS011;54257;54.496;18.412;2022-08-11T16:07:40;1.80;;;1.20;;
67372;SDS011;54257;54.496;18.412;2022-08-11T16:10:15;2.70;;;1.10;;
67372;SDS011;54257;54.496;18.412;2022-08-11T16:12:48;3.30;;;1.20;;
67372;SDS011;54257;54.496;18.412;2022-08-11T16:15:32;2.60;;;1.20;;
67372;SDS011;54257;54.496;18.412;2022-08-11T16:18:20;5.40;;;2.10;;
67372;SDS011;54257;54.496;18.412;2022-08-11T16:20:51;1.90;;;1.30;;
67372;SDS011;54257;54.496;18.412;2022-08-11T16:23:22;3.40;;;1.30;;
67372;SDS011;54257;54.496;18.412;2022-08-11T16:25:53;2.80;;;1.40;;
67372;SDS011;54257;54.496;18.412;2022-08-11T16:28:22;3.50;;;1.60;;
67372;SDS011;54257;54.496;18.412;2022-08-11T16:30:50;1.40;;;1.30;;
67372;SDS011;54257;54.496;18.412;2022-08-11T16:33:20;3.10;;;1.60;;
67372;SDS011;54257;54.496;18.412;2022-08-11T16:35:49;3.80;;;1.70;;
67372;SDS011;54257;54.496;18.412;2022-08-11T16:38:36;3.50;;;1.80;;
67372;SDS011;54257;54.496;18.412;2022-08-11T16:41:16;1.90;;;1.40;;
67372;SDS011;54257;54.496;18.412;2022-08-11T16:44:07;4.40;;;1.20;;
67372;SDS011;54257;54.496;18.412;2022-08-11T16:46:55;3.50;;;1.20;;
67372;SDS011;54257;54.496;18.412;2022-08-11T16:49:37;2.20;;;1.30;;
67372;SDS011;54257;54.496;18.412;2022-08-11T16:52:08;3.70;;;1.30;;
67372;SDS011;54257;54.496;18.412;2022-08-11T16:54:39;2.00;;;1.00;;
67372;SDS011;54257;54.496;18.412;2022-08-11T16:57:08;6.30;;;1.70;;
67372;SDS011;54257;54.496;18.412;2022-08-11T17:00:00;3.70;;;1.70;;
67372;SDS011;54257;54.496;18.412;2022-08-11T17:02:32;4.60;;;1.30;;
67372;SDS011;54257;54.496;18.412;2022-08-11T17:05:24;3.00;;;1.40;;
67372;SDS011;54257;54.496;18.412;2022-08-11T17:08:10;1.80;;;0.90;;
67372;SDS011;54257;54.496;18.412;2022-08-11T17:10:56;2.60;;;1.30;;
67372;SDS011;54257;54.496;18.412;2022-08-11T17:13:49;2.50;;;1.30;;
67372;SDS011;54257;54.496;18.412;2022-08-11T17:16:23;1.80;;;1.50;;
67372;SDS011;54257;54.496;18.412;2022-08-11T17:18:58;1.40;;;1.30;;
67372;SDS011;54257;54.496;18.412;2022-08-11T17:21:30;2.30;;;1.50;;
67372;SDS011;54257;54.496;18.412;2022-08-11T17:24:03;1.50;;;1.40;;
67372;SDS011;54257;54.496;18.412;2022-08-11T17:26:36;1.40;;;1.20;;
67372;SDS011;54257;54.496;18.412;2022-08-11T17:29:31;2.50;;;1.60;;
67372;SDS011;54257;54.496;18.412;2022-08-11T17:32:00;3.50;;;2.20;;
67372;SDS011;54257;54.496;18.412;2022-08-11T17:34:48;4.10;;;1.70;;
67372;SDS011;54257;54.496;18.412;2022-08-11T17:37:37;5.10;;;2.00;;
67372;SDS011;54257;54.496;18.412;2022-08-11T17:40:10;5.80;;;1.90;;
67372;SDS011;54257;54.496;18.412;2022-08-11T17:42:39;1.70;;;1.60;;
67372;SDS011;54257;54.496;18.412;2022-08-11T17:45:28;3.60;;;1.60;;
67372;SDS011;54257;54.496;18.412;2022-08-11T17:48:14;2.50;;;1.70;;
67372;SDS011;54257;54.496;18.412;2022-08-11T17:50:51;3.60;;;1.60;;
67372;SDS011;54257;54.496;18.412;2022-08-11T17:53:28;2.90;;;1.50;;
67372;SDS011;54257;54.496;18.412;2022-08-11T17:56:17;4.20;;;1.60;;
67372;SDS011;54257;54.496;18.412;2022-08-11T17:59:04;2.20;;;1.70;;
67372;SDS011;54257;54.496;18.412;2022-08-11T18:01:53;1.80;;;1.40;;
67372;SDS011;54257;54.496;18.412;2022-08-11T18:04:21;5.30;;;1.70;;
67372;SDS011;54257;54.496;18.412;2022-08-11T18:06:50;4.90;;;1.80;;
67372;SDS011;54257;54.496;18.412;2022-08-11T18:09:20;3.80;;;1.80;;
67372;SDS011;54257;54.496;18.412;2022-08-11T18:12:08;2.60;;;2.00;;
67372;SDS011;54257;54.496;18.412;2022-08-11T18:14:54;2.20;;;1.70;;
67372;SDS011;54257;54.496;18.412;2022-08-11T18:17:42;3.50;;;2.00;;
67372;SDS011;54257;54.496;18.412;2022-08-11T18:20:27;5.40;;;2.30;;
67372;SDS011;54257;54.496;18.412;2022-08-11T18:23:15;6.50;;;1.90;;
67372;SDS011;54257;54.496;18.412;2022-08-11T18:26:05;5.40;;;1.90;;
67372;SDS011;54257;54.496;18.412;2022-08-11T18:28:54;23.80;;;4.40;;
67372;SDS011;54257;54.496;18.412;2022-08-11T18:31:46;17.80;;;3.50;;
67372;SDS011;54257;54.496;18.412;2022-08-11T18:34:35;8.40;;;2.40;;
67372;SDS011;54257;54.496;18.412;2022-08-11T18:37:26;12.00;;;2.80;;
67372;SDS011;54257;54.496;18.412;2022-08-11T18:40:19;8.10;;;2.00;;
67372;SDS011;54257;54.496;18.412;2022-08-11T18:43:11;6.40;;;2.90;;
67372;SDS011;54257;54.496;18.412;2022-08-11T18:46:01;5.00;;;2.20;;
67372;SDS011;54257;54.496;18.412;2022-08-11T18:48:58;6.40;;;2.40;;
67372;SDS011;54257;54.496;18.412;2022-08-11T18:51:54;6.20;;;2.40;;
67372;SDS011;54257;54.496;18.412;2022-08-11T18:54:42;5.40;;;2.40;;
67372;SDS011;54257;54.496;18.412;2022-08-11T18:57:31;11.70;;;2.80;;
67372;SDS011;54257;54.496;18.412;2022-08-11T19:00:21;6.10;;;2.50;;
67372;SDS011;54257;54.496;18.412;2022-08-11T19:03:09;7.90;;;3.20;;
67372;SDS011;54257;54.496;18.412;2022-08-11T19:05:57;5.40;;;2.20;;
67372;SDS011;54257;54.496;18.412;2022-08-11T19:08:47;5.90;;;2.80;;
67372;SDS011;54257;54.496;18.412;2022-08-11T19:11:37;7.10;;;2.40;;
67372;SDS011;54257;54.496;18.412;2022-08-11T19:14:24;6.90;;;2.90;;
67372;SDS011;54257;54.496;18.412;2022-08-11T19:17:13;9.10;;;2.60;;
67372;SDS011;54257;54.496;18.412;2022-08-11T19:20:02;6.90;;;2.30;;
67372;SDS011;54257;54.496;18.412;2022-08-11T19:22:50;19.40;;;3.50;;
67372;SDS011;54257;54.496;18.412;2022-08-11T19:25:42;10.50;;;3.00;;
67372;SDS011;54257;54.496;18.412;2022-08-11T19:28:29;7.70;;;2.70;;
67372;SDS011;54257;54.496;18.412;2022-08-11T19:31:23;7.50;;;2.90;;
67372;SDS011;54257;54.496;18.412;2022-08-11T19:34:12;9.50;;;2.80;;
67372;SDS011;54257;54.496;18.412;2022-08-11T19:37:00;8.10;;;2.70;;
67372;SDS011;54257;54.496;18.412;2022-08-11T19:39:48;4.50;;;2.20;;
67372;SDS011;54257;54.496;18.412;2022-08-11T19:42:37;3.90;;;2.50;;